createdAt,value
2018-10-12T00:01:25.121Z,15.10
2018-10-12T00:04:28.238Z,15.10
2018-10-12T00:07:31.425Z,15.10
2018-10-12T00:10:34.552Z,15.00
2018-10-12T00:13:37.694Z,15.00
2018-10-12T00:16:40.813Z,15.10
2018-10-12T00:19:43.922Z,15.20
2018-10-12T00:22:47.028Z,15.30
2018-10-12T00:25:50.143Z,15.30
2018-10-12T00:28:53.267Z,15.40
2018-10-12T00:31:56.408Z,15.40
2018-10-12T00:34:59.485Z,15.40
2018-10-12T00:38:02.599Z,15.60
2018-10-12T00:41:05.770Z,15.70
2018-10-12T00:44:08.875Z,15.70
2018-10-12T00:47:11.987Z,15.80
2018-10-12T00:50:15.075Z,15.80
2018-10-12T00:53:18.194Z,15.90
2018-10-12T00:56:21.290Z,15.90
2018-10-12T00:59:24.383Z,15.90
2018-10-12T01:02:33.086Z,15.90
2018-10-12T01:05:36.202Z,16.00
2018-10-12T01:08:39.298Z,16.20
2018-10-12T01:11:42.365Z,16.20
2018-10-12T01:14:45.476Z,16.20
2018-10-12T01:17:48.551Z,16.30
2018-10-12T01:20:51.657Z,16.40
2018-10-12T01:23:54.721Z,16.40
2018-10-12T01:26:57.862Z,16.40
2018-10-12T01:30:00.973Z,16.40
2018-10-12T01:33:05.166Z,16.30
2018-10-12T01:36:08.246Z,16.30
2018-10-12T01:39:11.374Z,16.30
2018-10-12T01:42:14.591Z,16.30
2018-10-12T01:45:17.698Z,16.30
2018-10-12T01:48:20.774Z,16.30
2018-10-12T01:51:23.886Z,16.30
2018-10-12T01:54:27.050Z,16.30
2018-10-12T01:57:30.157Z,16.30
2018-10-12T02:00:33.235Z,16.30
2018-10-12T02:03:36.338Z,16.40
2018-10-12T02:06:39.442Z,16.30
2018-10-12T02:09:42.585Z,16.30
2018-10-12T02:12:45.654Z,16.30
2018-10-12T02:15:48.896Z,16.40
2018-10-12T02:18:51.995Z,16.40
2018-10-12T02:21:55.315Z,16.50
2018-10-12T02:24:58.393Z,16.60
2018-10-12T02:28:01.498Z,16.60
2018-10-12T02:31:04.578Z,16.60
2018-10-12T02:34:07.678Z,16.70
2018-10-12T02:37:10.774Z,16.70
2018-10-12T02:40:13.879Z,16.70
2018-10-12T02:43:16.942Z,16.60
2018-10-12T02:46:20.083Z,16.70
2018-10-12T02:49:23.189Z,16.70
2018-10-12T02:52:26.292Z,16.70
2018-10-12T02:55:29.374Z,16.70
2018-10-12T02:58:32.511Z,16.70
2018-10-12T03:01:35.598Z,16.70
2018-10-12T03:04:38.709Z,16.70
2018-10-12T03:07:41.781Z,16.60
2018-10-12T03:10:44.881Z,16.60
2018-10-12T03:13:47.992Z,16.50
2018-10-12T03:16:51.081Z,16.50
2018-10-12T03:19:54.196Z,16.40
2018-10-12T03:22:57.314Z,16.20
2018-10-12T03:26:00.558Z,16.20
2018-10-12T03:29:03.665Z,16.10
2018-10-12T03:32:06.965Z,16.00
2018-10-12T03:35:10.065Z,16.00
2018-10-12T03:38:13.407Z,15.90
2018-10-12T03:41:16.518Z,15.80
2018-10-12T03:44:19.618Z,15.80
2018-10-12T03:47:22.725Z,15.70
2018-10-12T03:50:25.801Z,15.60
2018-10-12T03:53:28.906Z,15.60
2018-10-12T03:56:32.049Z,15.60
2018-10-12T03:59:35.115Z,15.60
2018-10-12T04:02:38.269Z,15.60
2018-10-12T04:05:41.337Z,15.60
2018-10-12T04:08:44.426Z,15.70
2018-10-12T04:11:47.522Z,15.70
2018-10-12T04:14:50.589Z,15.70
2018-10-12T04:17:53.702Z,15.80
2018-10-12T04:20:56.782Z,15.80
2018-10-12T04:23:59.877Z,15.70
2018-10-12T04:27:02.969Z,15.70
2018-10-12T04:30:06.647Z,15.70
2018-10-12T04:33:09.730Z,15.70
2018-10-12T04:36:12.826Z,15.70
2018-10-12T04:39:27.527Z,15.70
2018-10-12T04:42:30.618Z,15.60
2018-10-12T04:45:33.739Z,15.60
2018-10-12T04:48:37.986Z,15.60
2018-10-12T04:51:46.118Z,15.50
2018-10-12T04:54:49.238Z,15.50
2018-10-12T04:57:52.332Z,15.50
2018-10-12T05:00:55.494Z,15.50
2018-10-12T05:03:58.534Z,15.40
2018-10-12T05:07:01.631Z,15.40
2018-10-12T05:10:04.762Z,15.40
2018-10-12T05:13:08.081Z,15.30
2018-10-12T05:16:11.185Z,15.30
2018-10-12T05:19:14.265Z,15.30
2018-10-12T05:22:17.477Z,15.30
2018-10-12T05:25:20.494Z,15.20
2018-10-12T05:28:24.363Z,15.20
2018-10-12T05:31:27.486Z,15.20
2018-10-12T05:34:30.602Z,15.20
2018-10-12T05:37:33.838Z,15.20
2018-10-12T05:40:36.942Z,15.20
2018-10-12T05:43:40.119Z,15.30
2018-10-12T05:46:43.145Z,15.30
2018-10-12T05:49:57.245Z,15.30
2018-10-12T05:53:00.378Z,15.30
2018-10-12T05:56:03.823Z,15.30
2018-10-12T05:59:07.251Z,15.40
2018-10-12T06:02:10.379Z,15.90
2018-10-12T06:05:13.478Z,16.60
2018-10-12T06:08:16.605Z,17.40
2018-10-12T06:11:19.717Z,18.20
2018-10-12T06:14:22.793Z,19.00
2018-10-12T06:17:25.886Z,19.70
2018-10-12T06:20:29.178Z,20.40
2018-10-12T06:23:32.402Z,21.00
2018-10-12T06:26:35.532Z,21.70
2018-10-12T06:29:38.642Z,22.40
2018-10-12T06:32:42.025Z,23.10
2018-10-12T06:35:45.066Z,23.70
2018-10-12T06:38:48.161Z,24.30
2018-10-12T06:41:51.433Z,24.80
2018-10-12T06:44:54.414Z,25.20
2018-10-12T06:48:04.155Z,25.60
2018-10-12T06:51:07.258Z,25.60
2018-10-12T06:54:10.795Z,25.90
2018-10-12T06:57:13.877Z,26.20
2018-10-12T07:00:16.974Z,26.40
2018-10-12T07:03:20.515Z,26.60
2018-10-12T07:06:23.166Z,27.00
2018-10-12T07:09:26.289Z,27.00
2018-10-12T07:12:29.366Z,27.00
2018-10-12T07:15:32.460Z,27.20
2018-10-12T07:18:35.543Z,27.40
2018-10-12T07:21:38.665Z,27.60
2018-10-12T07:24:41.757Z,27.30
2018-10-12T07:27:44.833Z,27.00
2018-10-12T07:30:47.953Z,27.00
2018-10-12T07:33:51.069Z,27.10
2018-10-12T07:36:54.183Z,27.30
2018-10-12T07:39:57.250Z,27.40
2018-10-12T07:43:00.349Z,27.60
2018-10-12T07:46:03.432Z,27.70
2018-10-12T07:49:06.621Z,27.70
2018-10-12T07:52:09.713Z,27.70
2018-10-12T07:55:12.815Z,27.90
2018-10-12T07:58:15.894Z,28.10
2018-10-12T08:01:18.992Z,28.20
2018-10-12T08:04:22.094Z,27.80
2018-10-12T08:07:25.218Z,27.70
2018-10-12T08:10:28.410Z,27.80
2018-10-12T08:13:31.513Z,27.90
2018-10-12T08:16:34.616Z,27.90
2018-10-12T08:19:37.702Z,27.80
2018-10-12T08:22:40.916Z,27.80
2018-10-12T08:25:44.032Z,27.90
2018-10-12T08:28:47.113Z,27.60
2018-10-12T08:31:50.203Z,27.30
2018-10-12T08:34:53.292Z,27.20
2018-10-12T08:37:56.407Z,27.20
2018-10-12T08:40:59.542Z,26.80
2018-10-12T08:44:02.682Z,26.20
2018-10-12T08:47:05.774Z,25.80
2018-10-12T08:50:08.870Z,25.40
2018-10-12T08:53:11.986Z,24.80
2018-10-12T08:56:15.108Z,24.70
2018-10-12T08:59:18.397Z,24.40
2018-10-12T09:02:21.514Z,24.10
2018-10-12T09:05:24.631Z,24.00
2018-10-12T09:08:27.719Z,23.80
2018-10-12T09:11:30.834Z,23.60
2018-10-12T09:14:33.954Z,23.60
2018-10-12T09:17:37.059Z,23.70
2018-10-12T09:20:40.251Z,23.70
2018-10-12T09:23:43.277Z,23.70
2018-10-12T09:26:46.386Z,23.80
2018-10-12T09:29:49.798Z,23.90
2018-10-12T09:32:52.886Z,24.00
2018-10-12T09:35:56.007Z,24.00
2018-10-12T09:38:59.115Z,23.90
2018-10-12T09:42:02.229Z,24.00
2018-10-12T09:45:05.314Z,23.90
2018-10-12T09:48:08.695Z,23.80
2018-10-12T09:51:11.777Z,23.80
2018-10-12T09:54:14.883Z,23.80
2018-10-12T09:57:23.359Z,23.60
2018-10-12T10:00:31.845Z,23.40
2018-10-12T10:03:40.162Z,23.60
2018-10-12T10:06:43.294Z,23.80
2018-10-12T10:09:46.401Z,23.90
2018-10-12T10:12:49.518Z,24.10
2018-10-12T10:15:52.608Z,24.10
2018-10-12T10:18:55.730Z,24.20
2018-10-12T10:21:58.851Z,24.20
2018-10-12T10:25:01.952Z,24.30
2018-10-12T10:28:05.526Z,24.30
2018-10-12T10:31:08.608Z,24.30
2018-10-12T10:34:11.718Z,24.20
2018-10-12T10:37:14.827Z,24.20
2018-10-12T10:40:17.947Z,24.10
2018-10-12T10:43:21.053Z,24.10
2018-10-12T10:46:24.236Z,24.20
2018-10-12T10:49:27.326Z,24.10
2018-10-12T10:52:30.402Z,24.20
2018-10-12T10:55:33.515Z,24.20
2018-10-12T10:58:36.649Z,24.20
2018-10-12T11:01:40.076Z,24.30
2018-10-12T11:04:43.198Z,24.30
2018-10-12T11:07:46.318Z,24.20
2018-10-12T11:10:49.435Z,24.10
2018-10-12T11:13:52.549Z,24.00
2018-10-12T11:16:55.674Z,23.90
2018-10-12T11:19:58.812Z,24.00
2018-10-12T11:23:01.928Z,23.90
2018-10-12T11:26:05.054Z,23.90
2018-10-12T11:29:08.166Z,23.90
2018-10-12T11:32:11.290Z,23.90
2018-10-12T11:35:14.391Z,23.80
2018-10-12T11:38:17.569Z,23.70
2018-10-12T11:41:20.634Z,23.80
2018-10-12T11:44:23.798Z,23.80
2018-10-12T11:47:26.914Z,23.70
2018-10-12T11:50:30.022Z,23.70
2018-10-12T11:53:33.140Z,23.60
2018-10-12T11:56:36.286Z,23.50
2018-10-12T11:59:39.369Z,23.40
2018-10-12T12:02:42.475Z,23.40
2018-10-12T12:05:45.589Z,23.50
2018-10-12T12:08:48.710Z,23.40
2018-10-12T12:11:52.650Z,23.30
2018-10-12T12:14:55.778Z,23.20
2018-10-12T12:17:59.257Z,23.20
2018-10-12T12:21:02.343Z,23.10
2018-10-12T12:24:05.557Z,23.10
2018-10-12T12:27:08.726Z,23.20
2018-10-12T12:30:11.835Z,23.30
2018-10-12T12:33:14.938Z,23.30
2018-10-12T12:36:18.103Z,23.30
2018-10-12T12:39:21.263Z,23.30
2018-10-12T12:42:24.354Z,23.20
2018-10-12T12:45:27.490Z,23.10
2018-10-12T12:48:30.829Z,23.10
2018-10-12T12:51:33.723Z,23.10
2018-10-12T12:54:36.890Z,23.10
2018-10-12T12:57:40.020Z,23.00
2018-10-12T13:00:43.097Z,23.10
2018-10-12T13:03:46.207Z,23.10
2018-10-12T13:06:49.315Z,23.10
2018-10-12T13:09:52.423Z,23.10
2018-10-12T13:12:55.507Z,23.20
2018-10-12T13:15:58.669Z,23.20
2018-10-12T13:19:01.766Z,23.10
2018-10-12T13:22:04.878Z,23.10
2018-10-12T13:25:08.018Z,23.10
2018-10-12T13:28:11.139Z,23.10
2018-10-12T13:31:14.230Z,23.10
2018-10-12T13:34:17.436Z,23.00
2018-10-12T13:37:20.546Z,23.00
2018-10-12T13:40:23.771Z,23.00
2018-10-12T13:43:26.774Z,23.00
2018-10-12T13:46:29.956Z,23.00
2018-10-12T13:49:33.047Z,23.00
2018-10-12T13:52:36.158Z,23.00
2018-10-12T13:55:39.312Z,23.00
2018-10-12T13:58:42.494Z,23.00
2018-10-12T14:01:45.607Z,22.90
2018-10-12T14:04:48.732Z,22.90
2018-10-12T14:07:51.878Z,22.90
2018-10-12T14:10:54.991Z,22.90
2018-10-12T14:13:58.089Z,22.90
2018-10-12T14:17:01.306Z,22.80
2018-10-12T14:20:04.522Z,22.80
2018-10-12T14:23:07.727Z,22.90
2018-10-12T14:26:10.838Z,22.80
2018-10-12T14:29:13.958Z,22.80
2018-10-12T14:32:17.046Z,22.80
2018-10-12T14:35:20.175Z,22.80
2018-10-12T14:38:23.299Z,22.80
2018-10-12T14:41:26.419Z,22.70
2018-10-12T14:44:29.654Z,22.70
2018-10-12T14:47:33.686Z,22.70
2018-10-12T14:50:36.910Z,22.60
2018-10-12T14:53:40.050Z,22.60
2018-10-12T14:56:43.263Z,22.60
2018-10-12T14:59:46.603Z,22.60
2018-10-12T15:02:49.741Z,22.60
2018-10-12T15:05:52.870Z,22.60
2018-10-12T15:08:55.973Z,22.60
2018-10-12T15:11:59.115Z,22.50
2018-10-12T15:15:16.789Z,22.50
2018-10-12T15:18:21.050Z,22.50
2018-10-12T15:21:24.358Z,22.40
2018-10-12T15:24:27.290Z,22.40
2018-10-12T15:27:30.368Z,22.30
2018-10-12T15:30:33.477Z,22.40
2018-10-12T15:33:36.582Z,22.30
2018-10-12T15:36:39.718Z,22.30
2018-10-12T15:39:42.801Z,22.30
2018-10-12T15:42:45.947Z,22.30
2018-10-12T15:45:49.005Z,22.20
2018-10-12T15:48:52.122Z,22.20
2018-10-12T15:51:55.242Z,22.10
2018-10-12T15:54:58.386Z,22.10
2018-10-12T15:58:01.491Z,22.10
2018-10-12T16:01:04.575Z,21.90
2018-10-12T16:04:07.793Z,21.90
2018-10-12T16:07:10.886Z,21.80
2018-10-12T16:10:14.018Z,21.80
2018-10-12T16:13:17.548Z,21.70
2018-10-12T16:16:20.663Z,21.60
2018-10-12T16:19:23.815Z,21.50
2018-10-12T16:22:26.948Z,21.40
2018-10-12T16:25:50.835Z,21.20
2018-10-12T16:28:54.022Z,21.10
2018-10-12T16:31:57.071Z,21.00
2018-10-12T16:35:00.179Z,20.90
2018-10-12T16:38:03.269Z,20.80
2018-10-12T16:41:06.409Z,20.70
2018-10-12T16:44:09.898Z,20.50
2018-10-12T16:47:13.062Z,20.30
2018-10-12T16:50:16.147Z,20.30
2018-10-12T16:53:19.270Z,20.10
2018-10-12T16:56:22.365Z,20.00
2018-10-12T16:59:25.460Z,19.90
2018-10-12T17:02:28.554Z,19.80
2018-10-12T17:05:31.653Z,19.80
2018-10-12T17:08:34.730Z,19.70
2018-10-12T17:11:37.809Z,19.70
2018-10-12T17:14:40.879Z,19.60
2018-10-12T17:17:44.003Z,19.60
2018-10-12T17:20:47.069Z,19.50
2018-10-12T17:23:50.178Z,19.50
2018-10-12T17:26:53.307Z,19.50
2018-10-12T17:29:56.375Z,19.50
2018-10-12T17:32:59.471Z,19.50
2018-10-12T17:36:02.562Z,19.40
2018-10-12T17:39:09.373Z,19.30
2018-10-12T17:42:15.402Z,19.30
2018-10-12T17:45:18.489Z,19.30
2018-10-12T17:48:21.590Z,19.40
2018-10-12T17:51:24.718Z,19.40
2018-10-12T17:54:27.821Z,19.30
2018-10-12T17:57:30.906Z,19.30
2018-10-12T18:00:34.038Z,19.40
2018-10-12T18:03:37.078Z,19.30
2018-10-12T18:06:40.174Z,19.30
2018-10-12T18:09:43.271Z,19.30
2018-10-12T18:12:46.378Z,19.30
2018-10-12T18:15:49.486Z,19.30
2018-10-12T18:18:52.567Z,19.30
2018-10-12T18:21:55.658Z,19.20
2018-10-12T18:24:58.726Z,19.20
2018-10-12T18:28:01.835Z,19.10
2018-10-12T18:31:04.934Z,19.10
2018-10-12T18:34:08.070Z,19.10
2018-10-12T18:37:11.166Z,19.00
2018-10-12T18:40:14.251Z,19.00
2018-10-12T18:43:17.354Z,19.00
2018-10-12T18:46:20.426Z,19.00
2018-10-12T18:49:23.530Z,19.00
2018-10-12T18:52:26.638Z,18.90
2018-10-12T18:55:29.740Z,18.90
2018-10-12T18:58:32.929Z,19.00
2018-10-12T19:01:36.014Z,19.00
2018-10-12T19:04:39.219Z,18.90
2018-10-12T19:07:42.243Z,18.90
2018-10-12T19:10:45.362Z,18.80
2018-10-12T19:13:48.606Z,18.80
2018-10-12T19:16:51.646Z,18.80
2018-10-12T19:19:54.750Z,18.70
2018-10-12T19:22:57.834Z,18.70
2018-10-12T19:26:00.938Z,18.70
2018-10-12T19:29:09.658Z,18.60
2018-10-12T19:32:12.827Z,18.60
2018-10-12T19:35:15.939Z,18.60
2018-10-12T19:38:19.117Z,18.60
2018-10-12T19:41:22.204Z,18.50
2018-10-12T19:44:25.347Z,18.50
2018-10-12T19:47:28.463Z,18.50
2018-10-12T19:50:31.591Z,18.50
2018-10-12T19:53:34.699Z,18.60
2018-10-12T19:56:37.807Z,18.60
2018-10-12T19:59:41.283Z,18.60
2018-10-12T20:02:44.399Z,18.60
2018-10-12T20:05:47.518Z,18.70
2018-10-12T20:08:50.613Z,18.60
2018-10-12T20:11:54.303Z,18.50
2018-10-12T20:14:57.450Z,18.50
2018-10-12T20:18:00.595Z,18.50
2018-10-12T20:21:03.718Z,18.50
2018-10-12T20:24:07.228Z,18.50
2018-10-12T20:27:10.293Z,18.40
2018-10-12T20:30:13.402Z,18.40
2018-10-12T20:33:16.742Z,18.40
2018-10-12T20:36:19.826Z,18.30
2018-10-12T20:39:23.056Z,18.30
2018-10-12T20:42:26.094Z,18.30
2018-10-12T20:45:29.217Z,18.30
2018-10-12T20:48:32.557Z,18.30
2018-10-12T20:51:35.969Z,18.30
2018-10-12T20:54:39.185Z,18.30
2018-10-12T20:57:45.794Z,18.30
2018-10-12T21:00:48.926Z,18.30
2018-10-12T21:03:52.040Z,18.30
2018-10-12T21:06:55.127Z,18.30
2018-10-12T21:09:58.233Z,18.30
2018-10-12T21:13:01.354Z,18.30
2018-10-12T21:16:04.446Z,18.30
2018-10-12T21:19:07.804Z,18.30
2018-10-12T21:22:10.918Z,18.30
2018-10-12T21:25:14.018Z,18.20
2018-10-12T21:28:17.264Z,18.20
2018-10-12T21:31:20.273Z,18.20
2018-10-12T21:34:23.374Z,18.20
2018-10-12T21:37:26.458Z,18.30
2018-10-12T21:40:29.589Z,18.30
2018-10-12T21:43:32.682Z,18.30
2018-10-12T21:46:35.828Z,18.20
2018-10-12T21:49:38.894Z,18.20
2018-10-12T21:52:42.004Z,18.20
2018-10-12T21:55:45.120Z,18.20
2018-10-12T21:58:48.510Z,18.20
2018-10-12T22:01:51.592Z,18.20
2018-10-12T22:04:54.682Z,18.10
2018-10-12T22:07:57.790Z,18.10
2018-10-12T22:11:00.891Z,18.10
2018-10-12T22:14:04.376Z,18.10
2018-10-12T22:17:07.475Z,18.10
2018-10-12T22:20:10.606Z,18.10
2018-10-12T22:23:13.706Z,18.10
2018-10-12T22:26:16.848Z,18.10
2018-10-12T22:29:19.918Z,18.10
2018-10-12T22:32:23.066Z,18.10
2018-10-12T22:35:26.142Z,18.00
2018-10-12T22:38:29.238Z,17.90
2018-10-12T22:41:32.338Z,17.80
2018-10-12T22:44:35.416Z,17.80
2018-10-12T22:47:45.031Z,17.80
2018-10-12T22:50:48.138Z,17.70
2018-10-12T22:53:51.255Z,17.60
2018-10-12T22:56:54.355Z,17.60
2018-10-12T22:59:57.468Z,17.50
2018-10-12T23:03:00.916Z,17.40
2018-10-12T23:06:03.994Z,17.30
2018-10-12T23:09:09.277Z,17.20
2018-10-12T23:12:12.362Z,17.20
2018-10-12T23:15:15.622Z,17.20
2018-10-12T23:18:18.865Z,17.10
2018-10-12T23:21:21.961Z,17.00
2018-10-12T23:24:25.049Z,17.00
2018-10-12T23:27:28.157Z,17.10
2018-10-12T23:30:31.255Z,17.10
2018-10-12T23:33:45.803Z,17.10
2018-10-12T23:36:48.882Z,17.10
2018-10-12T23:39:51.982Z,17.10
2018-10-12T23:42:55.056Z,17.10
2018-10-12T23:45:58.146Z,17.10
2018-10-12T23:49:01.233Z,17.10
2018-10-12T23:52:04.361Z,17.10
2018-10-12T23:55:07.443Z,17.10
2018-10-12T23:58:10.558Z,17.20
